Flight Track Log - Related Links

Times and Time Zones

All times are in EDT time to prevent confusion due to time zone crossing. See the UAL582 flight status page for this flight to view local times or setup timezone preferences in your user account.

Time Position Orientation Groundspeed Altitude Reporting Facility
EDT Latitude Longitude Course Direction KTS MPH feet Rate Location/Type
Wed 05:11:12 PM 43.6667 -79.6500 277° West 120 138 1,700  Level Toronto Center
Wed 05:12:11 PM 43.6333 -79.7000 227° Southwest 200 230 4,000 2,400 Climbing Toronto Center
Wed 05:13:12 PM 43.6333 -79.8000 270° West 240 276 6,500 1,934 Climbing Toronto Center
Wed 05:14:00 PM 43.7107 -80.0946 277° West  Level FlightAware Approximate
Wed 05:14:12 PM 43.6667 -79.8667 305° West 250 288 7,900  Level Toronto Center
Wed 05:15:00 PM 43.7167 -80.2152 270° West  Level FlightAware Approximate
Wed 05:15:12 PM 43.6833 -79.9833 281° West 250 288 10,600  Level Toronto Center
Wed 05:16:00 PM 43.7275 -80.3354 277° West  Level FlightAware Approximate
Wed 05:16:12 PM 43.7000 -80.1000 281° West 310 357 12,700  Level Toronto Center
Wed 05:17:12 PM 43.7000 -80.2167 270° West 330 380 15,700 2,750 Climbing Toronto Center
Wed 05:18:12 PM 43.7167 -80.3500 280° West 340 391 18,200 2,500 Climbing Toronto Center
Wed 05:19:12 PM 43.7333 -80.4667 281° West 350 403 20,700 2,700 Climbing Toronto Center
Wed 05:20:12 PM 43.7333 -80.6000 270° West 340 391 23,600 2,500 Climbing Toronto Center
Wed 05:21:12 PM 43.6667 -80.7167 232° Southwest 360 414 25,700 1,900 Climbing Toronto Center
Wed 05:22:12 PM 43.5667 -80.7667 200° South 390 449 27,400 1,700 Climbing Toronto Center
Wed 05:23:12 PM 43.4333 -80.8333 200° South 410 472 29,100 1,700 Climbing Toronto Center
Wed 05:24:12 PM 43.3333 -80.9000 206° Southwest 410 472 30,800 1,450 Climbing Toronto Center
Wed 05:25:12 PM 43.2333 -80.9667 206° Southwest 420 483 32,000 908 Climbing Toronto Center
Wed 05:26:11 PM 43.1667 -81.0667 228° Southwest 410 472 32,600 900 Climbing Toronto Center
Wed 05:27:12 PM 43.1500 -81.2333 262° West 410 472 33,800 1,339 Climbing Toronto Center
Wed 05:28:12 PM 43.1500 -81.4000 270° West 410 472 35,300 1,100 Climbing Toronto Center
Wed 05:29:12 PM 43.1333 -81.5333 260° West 400 460 36,000 350 Climbing Toronto Center
Wed 05:30:12 PM 43.1333 -81.6833 270° West 400 460 36,000  Level Toronto Center
Wed 05:31:11 PM 43.1167 -81.8500 262° West 400 460 36,000  Level Toronto Center
Wed 05:32:11 PM 43.1000 -81.9833 260° West 400 460 36,000  Level Toronto Center
Wed 05:33:11 PM 43.0833 -82.1500 262° West 390 449 36,000  Level Toronto Center
Wed 05:34:11 PM 43.0833 -82.2833 270° West 390 449 36,000  Level Toronto Center
Wed 05:35:11 PM 43.0667 -82.4333 261° West 390 449 36,000  Level Toronto Center
Wed 05:36:11 PM 43.0667 -82.5833 270° West 390 449 36,000  Level Toronto Center
Wed 05:37:11 PM 43.0333 -82.7167 251° West 390 449 36,000  Level Toronto Center
Wed 05:38:11 PM 43.0333 -82.8667 270° West 390 449 36,000  Level Toronto Center
Wed 05:39:11 PM 43.0167 -83.0000 260° West 390 449 36,000  Level Toronto Center
Wed 05:40:11 PM 43.0167 -83.1667 270° West 390 449 36,000 -150 Level Toronto Center
Wed 05:41:11 PM 42.9833 -83.3000 251° West 390 449 35,700 -650 Descending Toronto Center
Wed 05:42:11 PM 42.9833 -83.4667 270° West 390 449 34,700 -950 Descending Toronto Center
Wed 05:43:11 PM 42.9667 -83.6000 260° West 390 449 33,800 -1,000 Descending Toronto Center
Wed 05:44:11 PM 42.9500 -83.7500 261° West 400 460 32,700 -900 Descending Toronto Center
Wed 05:45:11 PM 42.9333 -83.9167 262° West 400 460 32,000 -350 Descending Toronto Center
Wed 05:46:11 PM 42.9333 -84.0500 270° West 410 472 32,000  Level Toronto Center
Wed 05:47:11 PM 42.9000 -84.2333 256° West 410 472 32,000  Level Toronto Center
Wed 05:48:11 PM 42.9000 -84.3667 270° West 410 472 32,000  Level Toronto Center
Wed 05:49:11 PM 42.8833 -84.5333 262° West 410 472 32,000  Level Toronto Center
Wed 05:50:11 PM 42.8667 -84.6833 261° West 410 472 32,000  Level Toronto Center
Wed 05:51:11 PM 42.8500 -84.8167 260° West 410 472 32,000  Level Toronto Center
Wed 05:52:11 PM 42.8333 -84.9833 262° West 410 472 32,000 -82 Level Toronto Center
Wed 05:53:38 PM 42.8186 -85.1975 265° West 407 468 31,800 -443 Descending Chicago Center
Wed 05:54:40 PM 42.8025 -85.3489 262° West 405 466 30,900 -919 Descending Chicago Center
Wed 05:55:42 PM 42.7853 -85.5008 261° West 405 466 29,900 -960 Descending Chicago Center
Wed 05:56:45 PM 42.7583 -85.6506 256° West 405 466 28,900 -1,248 Descending Chicago Center
Wed 05:57:47 PM 42.7308 -85.8017 256° West 407 468 27,300 -1,887 Descending Chicago Center
Wed 05:58:49 PM 42.7042 -85.9489 256° West 402 463 25,000 -2,419 Descending Chicago Center
Wed 05:59:51 PM 42.6733 -86.1203 256° West 390 449 22,300 -2,323 Descending Chicago Center
Wed 06:00:53 PM 42.6478 -86.2575 256° West 375 432 20,200 -1,645 Descending Chicago Center
Wed 06:01:55 PM 42.6228 -86.3919 256° West 368 423 18,900 -1,161 Descending Chicago Center
Wed 06:02:57 PM 42.5994 -86.5233 256° West 360 414 17,800 -1,113 Descending Chicago Center
Wed 06:03:59 PM 42.5750 -86.6489 255° West 347 399 16,600 -1,161 Descending Chicago Center
Wed 06:05:01 PM 42.5478 -86.7744 254° West 348 400 15,400 -1,161 Descending Chicago Center
Wed 06:06:03 PM 42.5144 -86.8931 249° West 340 391 14,200 -1,296 Descending Chicago Center
Wed 06:07:06 PM 42.4772 -87.0367 251° West 337 388 12,700 -1,200 Descending Chicago Center
Wed 06:08:08 PM 42.4444 -87.1500 249° West 327 376 11,700 -1,016 Descending Chicago Center
Wed 06:09:10 PM 42.3764 -87.2056 211° Southwest 318 366 10,600 -1,306 Descending Chicago Center
Wed 06:10:12 PM 42.2828 -87.2303 191° South 311 358 9,000 -823 Descending Chicago Center
Wed 06:11:14 PM 42.1997 -87.2542 192° South 309 356 8,900 -290 Descending Chicago Center
Wed 06:12:16 PM 42.1169 -87.2775 192° South 306 352 8,400 -629 Descending Chicago Center
Wed 06:13:18 PM 42.0361 -87.3022 193° South 301 346 7,600 -726 Descending Chicago Center
Wed 06:14:20 PM 41.9886 -87.4075 239° Southwest 278 320 6,900 -339 Descending Chicago Center
Wed 06:15:22 PM 41.9836 -87.5003 266° West 251 289 6,900 -677 Level Chicago Center
Wed 06:16:24 PM 41.9836 -87.5847 270° West 230 265 5,500 -1,442 Descending Chicago Center
Wed 06:17:06 PM 41.9833 -87.6500 270° West 222 255 4,400 -1,529 Descending Chicago TRACON
Wed 06:18:06 PM 41.9833 -87.7167 270° West 213 245 2,900 -1,200 Descending Chicago TRACON
Wed 06:19:06 PM 41.9833 -87.8000 270° West 174 200 2,000 -850 Descending Chicago TRACON
Wed 06:20:06 PM 41.9833 -87.8500 270° West 131 151 1,200 -800 Descending Chicago TRACON

Login

Don't have an account? Register now (free) for customized features, flight alerts, and more!